Pacific Falcon — WDE4151 — position and weather

sailwx.info

Track history (hours):
 
Tides and Currents Weather Stations Pressure Air Temp Water Temp Dewpoint Dewpoint Depression Visibility Wind Speed Wind Dir Waves Ship Positions

Pacific Falcon

Owner: Harley Marine Services, INC, SEATTLE, WA. More information available from US FCC via Universal Licensing System and Coast Guard Vessel Documentation Center.

Last reported at 2017-Dec-17 17:13 UTC. Time now 2017-Dec-17 17:56 UTC.
Position N 33°45' W 118°42'.

Length 36 m; draft 4.2 m.

Type: Tow > 200 m length. MMSI: 367349430.

Date/timePositionNaut miles runAvg speedWind from/ knotsBaromVisibWave heightAir tempDewpointWater temp
2017-Dec-17 17:13N 33°45' W 118°42'2 7.1
2017-Dec-17 16:56N 33°46' W 118°44'3 7.1
2017-Dec-17 16:30N 33°48' W 118°47'3 6.7
2017-Dec-17 16:00N 33°50' W 118°50'3 6.3
2017-Dec-17 15:30N 33°51' W 118°54'3 6.3
2017-Dec-17 15:00N 33°53' W 118°57'3 6.3
2017-Dec-17 14:30N 33°55' W 119°00'3 6.2
2017-Dec-17 14:00N 33°56' W 119°03'3 6.3
2017-Dec-17 13:30N 33°57' W 119°07'3 6.0
2017-Dec-17 13:00N 33°59' W 119°10'3 5.8
2017-Dec-17 12:28N 34°00' W 119°13'3 5.9
2017-Dec-17 12:00N 34°02' W 119°16'3 6.4
2017-Dec-17 11:30N 34°03' W 119°20'3 6.4
2017-Dec-17 11:00N 34°04' W 119°23'4 7.4
2017-Dec-17 10:30N 34°05' W 119°28'4 7.9
2017-Dec-17 09:59N 34°06' W 119°33'4 7.4
2017-Dec-17 09:29N 34°07' W 119°37'4 7.7
2017-Dec-17 09:00N 34°08' W 119°41'4 7.6
2017-Dec-17 08:27N 34°09' W 119°46'4 7.7
2017-Dec-17 07:59N 34°10' W 119°50'4 7.5
2017-Dec-17 07:30N 34°11' W 119°54'4 7.6
2017-Dec-17 06:58N 34°12' W 119°59'4 7.6
2017-Dec-17 06:30N 34°13' W 120°03'4 7.4
2017-Dec-17 06:00N 34°14' W 120°07'4 7.3
2017-Dec-17 05:30N 34°15' W 120°12'4 7.2
2017-Dec-17 04:59N 34°16' W 120°16'3 7.1
2017-Dec-17 04:30N 34°17' W 120°20'3 7.0
2017-Dec-17 04:00N 34°18' W 120°24'4 7.0
2017-Dec-17 03:29N 34°18' W 120°28'4 7.5
2017-Dec-17 02:56N 34°20' W 120°33'3 7.2
2017-Dec-17 02:31N 34°20' W 120°37'4 7.3
2017-Dec-17 02:00N 34°21' W 120°41'4 7.5
2017-Dec-17 01:30N 34°23' W 120°45'4 7.4
2017-Dec-17 01:00N 34°24' W 120°50'4 7.1
2017-Dec-17 00:30N 34°25' W 120°53'4 7.1
2017-Dec-17 00:00N 34°28' W 120°56'4 7.1
2017-Dec-16 23:30N 34°31' W 120°59'3 6.9
2017-Dec-16 23:00N 34°34' W 121°01'3 6.8
2017-Dec-16 22:30N 34°37' W 121°03'3 6.6
2017-Dec-16 22:00N 34°39' W 121°06'3 6.8
2017-Dec-16 21:30N 34°42' W 121°08'4 7.0
2017-Dec-16 21:00N 34°45' W 121°11'5 7.0
2017-Dec-16 20:17N 34°49' W 121°14'2 7.3
2017-Dec-16 20:00N 34°51' W 121°16'4 7.1
2017-Dec-16 19:30N 34°53' W 121°18'4 6.5
2017-Dec-16 18:58N 34°56' W 121°21'3 6.4
2017-Dec-16 18:30N 34°59' W 121°23'3 6.6
2017-Dec-16 18:00N 35°02' W 121°25'8 6.8
2017-Dec-16 16:53N 35°08' W 121°30'5 6.8
2017-Dec-16 16:08N 35°12' W 121°33'1 6.7
2017-Dec-16 15:59N 35°13' W 121°34'5 6.8
2017-Dec-16 15:19N 35°17' W 121°38'2 6.9
2017-Dec-16 15:00N 35°18' W 121°39'3 7.0
2017-Dec-16 14:30N 35°21' W 121°42'4 7.8
2017-Dec-16 14:01N 35°24' W 121°44'36 8.0
2017-Dec-16 09:30N 35°54' W 122°10'10 7.9
2017-Dec-16 08:17N 36°01' W 122°17'3 7.7
2017-Dec-16 07:57N 36°04' W 122°19'4 7.9
2017-Dec-16 07:29N 36°07' W 122°21'4 7.9
2017-Dec-16 07:00N 36°10' W 122°23'4 7.7
2017-Dec-16 06:30N 36°13' W 122°26'12 7.9
2017-Dec-16 04:57N 36°25' W 122°31'4 8.0
2017-Dec-16 04:30N 36°28' W 122°33'4 8.4
2017-Dec-16 04:00N 36°32' W 122°36'4 8.3
2017-Dec-16 03:30N 36°35' W 122°38'4 8.0
2017-Dec-16 03:00N 36°39' W 122°41'4 8.4
2017-Dec-16 02:30N 36°42' W 122°44'4 8.5
2017-Dec-16 02:00N 36°46' W 122°46'4 8.6
2017-Dec-16 01:30N 36°50' W 122°49'5 8.7
2017-Dec-16 00:58N 36°54' W 122°52'4 8.5
2017-Dec-16 00:28N 36°58' W 122°54'4 8.2
2017-Dec-16 00:00N 37°01' W 122°56'4 8.5
2017-Dec-15 23:30N 37°05' W 122°58'4 8.3
2017-Dec-15 23:00N 37°09' W 123°00'4 8.3
2017-Dec-15 22:30N 37°13' W 123°02'4 8.3
2017-Dec-15 22:00N 37°17' W 123°03'4 8.1
2017-Dec-15 21:30N 37°21' W 123°03'4 7.9
2017-Dec-15 21:00N 37°25' W 123°04'4 7.9
2017-Dec-15 20:30N 37°29' W 123°04'4 7.7
2017-Dec-15 20:00N 37°32' W 123°04'3 6.6
2017-Dec-15 19:30N 37°35' W 123°02'4 7.7
2017-Dec-15 19:00N 37°37' W 122°58'4 7.8
2017-Dec-15 18:30N 37°40' W 122°54'4 7.3
2017-Dec-15 18:00N 37°42' W 122°50'3 6.4
2017-Dec-15 17:30N 37°43' W 122°47'4 8.0
2017-Dec-15 16:59N 37°45' W 122°42'4 7.6
2017-Dec-15 16:30N 37°46' W 122°38'3 6.7
2017-Dec-15 16:00N 37°47' W 122°34'3 6.4
2017-Dec-15 15:30N 37°49' W 122°30'3 6.2
2017-Dec-15 15:00N 37°50' W 122°27'3 6.0
2017-Dec-15 14:30N 37°53' W 122°26'4 7.6
2017-Dec-15 14:00N 37°57' W 122°27'3 5.6
2017-Dec-15 13:30N 37°59' W 122°26'4 8.0
2017-Dec-15 13:00N 38°02' W 122°22'5 9.6
2017-Dec-15 12:29N 38°04' W 122°16'6 0.3
2017-Dec-14 14:55N 38°02' W 122°08'2 5.3
2017-Dec-14 14:30N 38°03' W 122°11'3 6.0
2017-Dec-14 14:00N 38°04' W 122°14'3 5.6
2017-Dec-14 13:30N 38°03' W 122°18'2 4.9
2017-Dec-14 13:00N 38°02' W 122°21'3 5.6
2017-Dec-14 12:30N 38°01' W 122°24'3 5.9
2017-Dec-14 11:59N 37°58' W 122°26'2 4.4
2017-Dec-14 11:30N 37°56' W 122°26'2 4.7
2017-Dec-14 11:00N 37°54' W 122°24'2 3.2
2017-Dec-14 10:30N 37°55' W 122°22'0 0.1
2017-Dec-14 10:01N 37°55' W 122°22'0 0.0
2017-Dec-14 09:30N 37°55' W 122°22'0 0.0
2017-Dec-14 09:00N 37°55' W 122°22'0 0.0
2017-Dec-14 08:30N 37°55' W 122°22'0 0.0
2017-Dec-14 08:00N 37°55' W 122°22'0 0.0
2017-Dec-14 07:30N 37°55' W 122°22'0 0.0
2017-Dec-14 07:00N 37°55' W 122°22'0 0.0
2017-Dec-14 06:30N 37°55' W 122°22'0 0.0
2017-Dec-14 06:00N 37°55' W 122°22'0 0.0
2017-Dec-14 05:30N 37°55' W 122°22'0 0.0
2017-Dec-14 05:00N 37°55' W 122°22'0 0.0
2017-Dec-14 04:30N 37°55' W 122°22'0 0.0
2017-Dec-14 04:00N 37°55' W 122°22'0 0.0
2017-Dec-14 03:30N 37°55' W 122°22'0 0.0
2017-Dec-14 03:00N 37°55' W 122°22'0 0.0
2017-Dec-14 02:30N 37°55' W 122°22'0 0.0
2017-Dec-14 02:00N 37°55' W 122°22'0 0.0
2017-Dec-14 01:29N 37°55' W 122°22'0 0.0
2017-Dec-14 01:00N 37°55' W 122°22'0 0.0
2017-Dec-14 00:30N 37°55' W 122°22'0 0.0
2017-Dec-14 00:00N 37°55' W 122°22'0 0.0
2017-Dec-13 23:30N 37°55' W 122°22'0 0.0
2017-Dec-13 23:00N 37°55' W 122°22'0 0.0
2017-Dec-13 22:30N 37°55' W 122°22'0 0.0
2017-Dec-13 22:00N 37°55' W 122°22'0 0.0
2017-Dec-13 21:30N 37°55' W 122°22'0 0.0
2017-Dec-13 21:00N 37°55' W 122°22'0 0.0
2017-Dec-13 20:30N 37°55' W 122°22'0 0.0
2017-Dec-13 20:00N 37°55' W 122°22'0 0.0
2017-Dec-13 19:30N 37°55' W 122°22'0 0.0
2017-Dec-13 19:00N 37°55' W 122°22'0 0.0
2017-Dec-13 18:30N 37°55' W 122°22'0 0.0
2017-Dec-13 18:00N 37°55' W 122°22'0 0.0
2017-Dec-13 17:30N 37°55' W 122°22'0 0.0
2017-Dec-13 17:00N 37°55' W 122°22'0 0.0
2017-Dec-13 16:30N 37°55' W 122°22'0 0.0
2017-Dec-13 16:00N 37°55' W 122°22'0 0.0
2017-Dec-13 15:30N 37°55' W 122°22'0 0.0
2017-Dec-13 15:00N 37°55' W 122°22'0 0.0
2017-Dec-13 14:30N 37°55' W 122°22'0 0.0
2017-Dec-13 14:00N 37°55' W 122°22'0 0.0
2017-Dec-13 13:30N 37°55' W 122°22'0 0.0
2017-Dec-13 13:00N 37°55' W 122°22'0 0.0
2017-Dec-13 12:30N 37°55' W 122°22'0 0.0
2017-Dec-13 12:00N 37°55' W 122°22'0 0.0
2017-Dec-13 11:30N 37°55' W 122°22'0 0.0
2017-Dec-13 11:00N 37°55' W 122°22'0 0.0
2017-Dec-13 10:30N 37°55' W 122°22'0 0.0
2017-Dec-13 10:00N 37°55' W 122°22'0 0.0
2017-Dec-13 09:30N 37°55' W 122°22'0 0.0
2017-Dec-13 09:00N 37°55' W 122°22'0 0.0
2017-Dec-13 08:30N 37°55' W 122°22'0 0.0
2017-Dec-13 08:00N 37°55' W 122°22'0 0.0
2017-Dec-13 07:30N 37°55' W 122°22'0 0.0
2017-Dec-13 07:00N 37°55' W 122°22'0 0.0
2017-Dec-13 06:30N 37°55' W 122°22'0 0.0
2017-Dec-13 06:00N 37°55' W 122°22'0 0.0
2017-Dec-13 05:30N 37°55' W 122°22'0 0.0
2017-Dec-13 05:00N 37°55' W 122°22'0 0.0
2017-Dec-13 04:30N 37°55' W 122°22'0 0.0
2017-Dec-13 04:00N 37°55' W 122°22'0 0.0
2017-Dec-13 03:30N 37°55' W 122°22'0 0.0
2017-Dec-13 03:00N 37°55' W 122°22'0 0.0
2017-Dec-13 02:30N 37°55' W 122°22'0 0.0
2017-Dec-13 02:00N 37°55' W 122°22'0 0.0
2017-Dec-13 01:30N 37°55' W 122°22'0 0.0
2017-Dec-13 01:00N 37°55' W 122°22'0 0.0
2017-Dec-13 00:30N 37°55' W 122°22'0 0.0
2017-Dec-13 00:00N 37°55' W 122°22'0 0.0
2017-Dec-12 23:30N 37°55' W 122°22'0 0.0
2017-Dec-12 23:00N 37°55' W 122°22'0 0.0
2017-Dec-12 22:30N 37°55' W 122°22'0 0.0
2017-Dec-12 22:00N 37°55' W 122°22'0 0.0
2017-Dec-12 21:30N 37°55' W 122°22'0 0.0
2017-Dec-12 21:00N 37°55' W 122°22'0 0.0
2017-Dec-12 20:30N 37°55' W 122°22'0 0.0
2017-Dec-12 20:00N 37°55' W 122°22'0 0.0
2017-Dec-12 19:30N 37°55' W 122°22'0 0.0
2017-Dec-12 19:00N 37°55' W 122°22'0 0.0
2017-Dec-12 18:30N 37°55' W 122°22'0 0.0
2017-Dec-12 18:00N 37°55' W 122°22'0 0.0
2017-Dec-12 17:30N 37°55' W 122°22'0 0.0
2017-Dec-12 17:00N 37°55' W 122°22'0 0.0
2017-Dec-12 16:30N 37°55' W 122°22'0 0.0
2017-Dec-12 16:00N 37°55' W 122°22'0 0.0
2017-Dec-12 15:30N 37°55' W 122°22'0 0.0
2017-Dec-12 15:00N 37°55' W 122°22'0 0.0
2017-Dec-12 14:30N 37°55' W 122°22'0 0.0
2017-Dec-12 14:00N 37°55' W 122°22'0 0.0
2017-Dec-12 13:30N 37°55' W 122°22'0 0.0
2017-Dec-12 13:00N 37°55' W 122°22'0 0.0
2017-Dec-12 12:30N 37°55' W 122°22'0 0.0
2017-Dec-12 12:00N 37°55' W 122°22'0 0.0
2017-Dec-12 11:30N 37°55' W 122°22'0 0.0
2017-Dec-12 11:00N 37°55' W 122°22'0 0.0
2017-Dec-12 10:30N 37°55' W 122°22'0 0.0
2017-Dec-12 10:00N 37°55' W 122°22'0 0.0
2017-Dec-12 09:30N 37°55' W 122°22'0 0.0
2017-Dec-12 09:00N 37°55' W 122°22'0 0.0
2017-Dec-12 08:30N 37°55' W 122°22'0 0.0
2017-Dec-12 08:00N 37°55' W 122°22'0 0.0
2017-Dec-12 07:30N 37°55' W 122°22'0 0.0
2017-Dec-12 07:00N 37°55' W 122°22'0 0.0
2017-Dec-12 06:30N 37°55' W 122°22'0 0.0
2017-Dec-12 06:00N 37°55' W 122°22'0 0.0
2017-Dec-12 05:30N 37°55' W 122°22'0 0.0
2017-Dec-12 05:00N 37°55' W 122°22'0 0.0
2017-Dec-12 04:30N 37°55' W 122°22'0 0.0
2017-Dec-12 04:00N 37°55' W 122°22'0 0.0
2017-Dec-12 03:30N 37°55' W 122°22'0 0.0
2017-Dec-12 03:00N 37°55' W 122°22'0 0.0
2017-Dec-12 02:30N 37°55' W 122°22'0 0.0
2017-Dec-12 02:00N 37°55' W 122°22'0 0.0
2017-Dec-12 01:30N 37°55' W 122°22'0 0.1
2017-Dec-12 01:00N 37°55' W 122°22'0 0.1
2017-Dec-12 00:30N 37°55' W 122°22'0 0.0
2017-Dec-12 00:00N 37°55' W 122°22'0 0.0
2017-Dec-11 23:30N 37°55' W 122°22'0 0.0
2017-Dec-11 23:00N 37°55' W 122°22'0 0.0
2017-Dec-11 22:30N 37°55' W 122°22'0 0.0
2017-Dec-11 22:00N 37°55' W 122°22'0 0.0
2017-Dec-11 21:30N 37°55' W 122°22'0 0.0
2017-Dec-11 21:00N 37°55' W 122°22'0 0.0
2017-Dec-11 20:30N 37°55' W 122°22'0 0.0
2017-Dec-11 20:00N 37°55' W 122°22'0 0.0
2017-Dec-11 19:30N 37°55' W 122°22'0 0.0
2017-Dec-11 19:00N 37°55' W 122°22'0 0.0
2017-Dec-11 18:30N 37°55' W 122°22'0 0.0
2017-Dec-11 18:00N 37°55' W 122°22'0 0.0
2017-Dec-11 17:30N 37°55' W 122°22'0 0.0
2017-Dec-11 17:00N 37°55' W 122°22'0 0.0
2017-Dec-11 16:30N 37°55' W 122°22'0 0.0
2017-Dec-11 16:00N 37°55' W 122°22'0 0.0
2017-Dec-11 15:30N 37°55' W 122°22'0 0.0
2017-Dec-11 15:00N 37°55' W 122°22'0 0.0
2017-Dec-11 14:30N 37°55' W 122°22'0 0.0
2017-Dec-11 14:00N 37°55' W 122°22'0 0.0
2017-Dec-11 13:30N 37°55' W 122°22'0 0.0
2017-Dec-11 13:00N 37°55' W 122°22'0 0.0
2017-Dec-11 12:30N 37°55' W 122°22'0 0.0
2017-Dec-11 12:00N 37°55' W 122°22'0 0.0
2017-Dec-11 11:30N 37°55' W 122°22'0 0.0
2017-Dec-11 11:01N 37°55' W 122°22'0 0.0
2017-Dec-11 10:30N 37°55' W 122°22'0 0.0
2017-Dec-11 10:00N 37°55' W 122°22'0 0.0
2017-Dec-11 09:30N 37°55' W 122°22'0 0.0
2017-Dec-11 09:00N 37°55' W 122°22'0 0.0
2017-Dec-11 08:30N 37°55' W 122°22'0 0.0
2017-Dec-11 08:00N 37°55' W 122°22'0 0.0
2017-Dec-11 07:30N 37°55' W 122°22'0 0.0
2017-Dec-11 07:01N 37°55' W 122°22'0 0.0
2017-Dec-11 06:30N 37°55' W 122°22'0 0.0
2017-Dec-11 06:00N 37°55' W 122°22'0 0.0
2017-Dec-11 05:30N 37°55' W 122°22'0 0.0
2017-Dec-11 05:00N 37°55' W 122°22'0 0.0
2017-Dec-11 04:30N 37°55' W 122°22'0 0.0
2017-Dec-11 04:00N 37°55' W 122°22'0 0.0
2017-Dec-11 03:30N 37°55' W 122°22'0 0.0
2017-Dec-11 03:00N 37°55' W 122°22'0 0.0
2017-Dec-11 02:30N 37°55' W 122°22'0 0.0
2017-Dec-11 02:00N 37°55' W 122°22'0 0.0
2017-Dec-11 01:30N 37°55' W 122°22'0 0.0
2017-Dec-11 01:00N 37°55' W 122°22'0 0.0
2017-Dec-11 00:30N 37°55' W 122°22'0 0.0
2017-Dec-11 00:00N 37°55' W 122°22'0 0.0
2017-Dec-10 23:30N 37°55' W 122°22'0 0.0
2017-Dec-10 23:00N 37°55' W 122°22'0 0.0
2017-Dec-10 22:30N 37°55' W 122°22'0 0.0
2017-Dec-10 22:00N 37°55' W 122°22'0 0.0
2017-Dec-10 21:30N 37°55' W 122°22'0 0.0
2017-Dec-10 21:00N 37°55' W 122°22'0 0.0
2017-Dec-10 20:30N 37°55' W 122°22'0 0.0
2017-Dec-10 20:00N 37°55' W 122°22'0 0.0
2017-Dec-10 19:30N 37°55' W 122°22'0 0.0
2017-Dec-10 19:00N 37°55' W 122°22'0 0.0
2017-Dec-10 18:30N 37°55' W 122°22'0 0.0
2017-Dec-10 18:00N 37°55' W 122°22'0 0.0
2017-Dec-10 17:30N 37°55' W 122°22'0 0.0
2017-Dec-10 17:00N 37°55' W 122°22'0 0.0
2017-Dec-10 16:31N 37°55' W 122°22'0 0.0
2017-Dec-10 16:00N 37°55' W 122°22'0 0.0
2017-Dec-10 15:30N 37°55' W 122°22'0 0.0
2017-Dec-10 15:00N 37°55' W 122°22'0 0.0
2017-Dec-10 14:30N 37°55' W 122°22'0 0.0
2017-Dec-10 14:00N 37°55' W 122°22'0 0.0
2017-Dec-10 13:30N 37°55' W 122°22'0 0.0
2017-Dec-10 13:00N 37°55' W 122°22'0 0.0
2017-Dec-10 12:30N 37°55' W 122°22'1 1.0
2017-Dec-10 12:00N 37°54' W 122°22'2 4.7
2017-Dec-10 11:30N 37°55' W 122°25'1 2.0
2017-Dec-10 11:00N 37°54' W 122°26'2 3.8
2017-Dec-10 10:30N 37°53' W 122°25'3 5.0
2017-Dec-10 10:00N 37°50' W 122°24'3 6.6
2017-Dec-10 09:30N 37°49' W 122°28'4 7.4
2017-Dec-10 09:00N 37°47' W 122°32'3 6.3
2017-Dec-10 08:30N 37°46' W 122°36'3 6.3
2017-Dec-10 08:00N 37°44' W 122°40'4 5.6
2017-Dec-10 07:17N 37°42' W 122°44'1 5.2
2017-Dec-10 07:00N 37°41' W 122°45'3 6.6
2017-Dec-10 06:30N 37°39' W 122°49'3 6.9
2017-Dec-10 06:00N 37°37' W 122°52'4 7.3
2017-Dec-10 05:30N 37°35' W 122°56'4 7.1
2017-Dec-10 05:00N 37°33' W 122°60'3 6.5
2017-Dec-10 04:30N 37°31' W 123°03'3 6.9
2017-Dec-10 04:00N 37°28' W 123°02'3 6.8
2017-Dec-10 03:30N 37°24' W 123°02'4 6.7
2017-Dec-10 02:55N 37°20' W 123°00'25 6.2
2017-Dec-09 22:59N 36°58' W 122°48'3 6.4
2017-Dec-09 22:29N 36°55' W 122°46'3 6.5
2017-Dec-09 22:00N 36°52' W 122°45'3 6.7
2017-Dec-09 21:30N 36°49' W 122°43'3 6.6
2017-Dec-09 21:00N 36°46' W 122°41'3 6.6
2017-Dec-09 20:30N 36°43' W 122°39'3 6.6
2017-Dec-09 20:00N 36°40' W 122°38'3 6.8
2017-Dec-09 19:30N 36°37' W 122°36'3 6.7
2017-Dec-09 19:00N 36°34' W 122°34'3 6.7
2017-Dec-09 18:30N 36°31' W 122°33'3 6.4
2017-Dec-09 18:00N 36°28' W 122°31'3 6.6
2017-Dec-09 17:30N 36°25' W 122°29'3 6.8
2017-Dec-09 17:00N 36°22' W 122°28'4 7.1
2017-Dec-09 16:30N 36°19' W 122°26'4 7.1
2017-Dec-09 16:00N 36°16' W 122°24'3 7.0
2017-Dec-09 15:30N 36°13' W 122°22'4 7.1
2017-Dec-09 15:00N 36°09' W 122°20'4 6.8
2017-Dec-09 14:23N 36°06' W 122°17'3 7.0
2017-Dec-09 14:00N 36°03' W 122°16'4 7.2
2017-Dec-09 13:30N 36°00' W 122°13'4 7.0
2017-Dec-09 13:00N 35°57' W 122°11'4 7.0
2017-Dec-09 12:30N 35°54' W 122°09'4 7.3
2017-Dec-09 12:00N 35°51' W 122°06'4 7.4
2017-Dec-09 11:30N 35°49' W 122°03'4 7.3
2017-Dec-09 11:00N 35°46' W 122°01'3 6.9
2017-Dec-09 10:30N 35°43' W 121°58'4 7.1
2017-Dec-09 10:00N 35°40' W 121°55'4 7.3
2017-Dec-09 09:31N 35°37' W 121°53'4 7.1
2017-Dec-09 09:00N 35°34' W 121°50'4 7.4
2017-Dec-09 08:30N 35°31' W 121°48'4 7.4
2017-Dec-09 08:00N 35°28' W 121°45'4 7.2
2017-Dec-09 07:30N 35°25' W 121°43'4 7.0
2017-Dec-09 07:00N 35°22' W 121°40'3 6.9
2017-Dec-09 06:30N 35°19' W 121°38'3 6.9
2017-Dec-09 06:00N 35°17' W 121°35'4 7.0
2017-Dec-09 05:30N 35°14' W 121°32'3 6.8
2017-Dec-09 05:00N 35°11' W 121°30'3 6.9
2017-Dec-09 04:30N 35°08' W 121°28'4 7.1
2017-Dec-09 04:00N 35°05' W 121°25'3 6.9
2017-Dec-09 03:30N 35°02' W 121°23'3 6.6
2017-Dec-09 03:00N 34°60' W 121°21'3 6.4
2017-Dec-09 02:30N 34°57' W 121°18'3 6.4
2017-Dec-09 02:00N 34°55' W 121°16'3 6.8
2017-Dec-09 01:31N 34°52' W 121°14'3 6.7
2017-Dec-09 01:00N 34°49' W 121°11'3 6.8
2017-Dec-09 00:30N 34°47' W 121°09'3 6.7
2017-Dec-09 00:00N 34°44' W 121°06'3 6.4
2017-Dec-08 23:30N 34°41' W 121°04'3 6.3
2017-Dec-08 23:00N 34°39' W 121°02'3 6.3
2017-Dec-08 22:30N 34°36' W 120°60'3 6.4
2017-Dec-08 22:00N 34°33' W 120°57'4 6.9
2017-Dec-08 21:26N 34°30' W 120°55'3 7.1
2017-Dec-08 20:58N 34°27' W 120°52'3 6.9
2017-Dec-08 20:30N 34°26' W 120°49'4 6.9
2017-Dec-08 19:57N 34°25' W 120°44'3 6.9
2017-Dec-08 19:30N 34°24' W 120°41'4 7.2
2017-Dec-08 19:00N 34°23' W 120°37'4 7.1
2017-Dec-08 18:30N 34°22' W 120°33'4 7.1
2017-Dec-08 18:00N 34°21' W 120°28'4 6.9
2017-Dec-08 17:29N 34°21' W 120°24'3 6.8
2017-Dec-08 16:58N 34°20' W 120°20'3 7.0
2017-Dec-08 16:30N 34°19' W 120°16'3 6.8
2017-Dec-08 16:00N 34°17' W 120°12'3 6.5
2017-Dec-08 15:30N 34°17' W 120°09'3 6.9
2017-Dec-08 15:00N 34°16' W 120°05'3 7.1
2017-Dec-08 14:30N 34°15' W 120°00'4 7.0
2017-Dec-08 14:00N 34°14' W 119°56'4 7.1
2017-Dec-08 13:30N 34°13' W 119°52'3 7.0
2017-Dec-08 13:00N 34°12' W 119°48'4 7.4
2017-Dec-08 12:28N 34°11' W 119°43'4 7.9
2017-Dec-08 11:59N 34°10' W 119°39'4 7.5
2017-Dec-08 11:30N 34°09' W 119°35'4 7.5
2017-Dec-08 10:59N 34°08' W 119°30'4 7.6
2017-Dec-08 10:30N 34°07' W 119°26'4 7.6
2017-Dec-08 09:58N 34°06' W 119°21'4 7.8
2017-Dec-08 09:30N 34°05' W 119°17'4 7.6
2017-Dec-08 09:00N 34°04' W 119°13'5 7.6
2017-Dec-08 08:24N 34°01' W 119°08'3 7.5
2017-Dec-08 08:00N 33°60' W 119°05'4 7.3
2017-Dec-08 07:30N 33°58' W 119°01'4 7.4
2017-Dec-08 07:00N 33°56' W 118°57'4 7.3
2017-Dec-08 06:30N 33°54' W 118°53'4 7.5
2017-Dec-08 06:00N 33°52' W 118°50'4 7.4
2017-Dec-08 05:30N 33°51' W 118°46'4 7.0
2017-Dec-08 05:00N 33°49' W 118°42'4 7.0
2017-Dec-08 04:29N 33°47' W 118°38'  
Track history (hours):
 
Tides and Currents Weather Stations Pressure Air Temp Water Temp Dewpoint Dewpoint Depression Visibility Wind Speed Wind Dir Waves Ship Positions

Pacific Falcon

Owner: Harley Marine Services, INC, SEATTLE, WA. More information available from US FCC via Universal Licensing System and Coast Guard Vessel Documentation Center.

Last reported at 2017-Dec-17 17:13 UTC. Time now 2017-Dec-17 17:56 UTC.
Position N 33°45' W 118°42'.

Length 36 m; draft 4.2 m.

Type: Tow > 200 m length. MMSI: 367349430.

Date/timePositionNaut miles runAvg speedWind from/ knotsBaromVisibWave heightAir tempDewpointWater temp
2017-Dec-17 17:13N 33°45' W 118°42'2 7.1
2017-Dec-17 16:56N 33°46' W 118°44'3 7.1
2017-Dec-17 16:30N 33°48' W 118°47'3 6.7
2017-Dec-17 16:00N 33°50' W 118°50'3 6.3
2017-Dec-17 15:30N 33°51' W 118°54'3 6.3
2017-Dec-17 15:00N 33°53' W 118°57'3 6.3
2017-Dec-17 14:30N 33°55' W 119°00'3 6.2
2017-Dec-17 14:00N 33°56' W 119°03'3 6.3
2017-Dec-17 13:30N 33°57' W 119°07'3 6.0
2017-Dec-17 13:00N 33°59' W 119°10'3 5.8
2017-Dec-17 12:28N 34°00' W 119°13'3 5.9
2017-Dec-17 12:00N 34°02' W 119°16'3 6.4
2017-Dec-17 11:30N 34°03' W 119°20'3 6.4
2017-Dec-17 11:00N 34°04' W 119°23'4 7.4
2017-Dec-17 10:30N 34°05' W 119°28'4 7.9
2017-Dec-17 09:59N 34°06' W 119°33'4 7.4
2017-Dec-17 09:29N 34°07' W 119°37'4 7.7
2017-Dec-17 09:00N 34°08' W 119°41'4 7.6
2017-Dec-17 08:27N 34°09' W 119°46'4 7.7
2017-Dec-17 07:59N 34°10' W 119°50'4 7.5
2017-Dec-17 07:30N 34°11' W 119°54'4 7.6
2017-Dec-17 06:58N 34°12' W 119°59'4 7.6
2017-Dec-17 06:30N 34°13' W 120°03'4 7.4
2017-Dec-17 06:00N 34°14' W 120°07'4 7.3
2017-Dec-17 05:30N 34°15' W 120°12'4 7.2
2017-Dec-17 04:59N 34°16' W 120°16'3 7.1
2017-Dec-17 04:30N 34°17' W 120°20'3 7.0
2017-Dec-17 04:00N 34°18' W 120°24'4 7.0
2017-Dec-17 03:29N 34°18' W 120°28'4 7.5
2017-Dec-17 02:56N 34°20' W 120°33'3 7.2
2017-Dec-17 02:31N 34°20' W 120°37'4 7.3
2017-Dec-17 02:00N 34°21' W 120°41'4 7.5
2017-Dec-17 01:30N 34°23' W 120°45'4 7.4
2017-Dec-17 01:00N 34°24' W 120°50'4 7.1
2017-Dec-17 00:30N 34°25' W 120°53'4 7.1
2017-Dec-17 00:00N 34°28' W 120°56'4 7.1
2017-Dec-16 23:30N 34°31' W 120°59'3 6.9
2017-Dec-16 23:00N 34°34' W 121°01'3 6.8
2017-Dec-16 22:30N 34°37' W 121°03'3 6.6
2017-Dec-16 22:00N 34°39' W 121°06'3 6.8
2017-Dec-16 21:30N 34°42' W 121°08'4 7.0
2017-Dec-16 21:00N 34°45' W 121°11'5 7.0
2017-Dec-16 20:17N 34°49' W 121°14'2 7.3
2017-Dec-16 20:00N 34°51' W 121°16'4 7.1
2017-Dec-16 19:30N 34°53' W 121°18'4 6.5
2017-Dec-16 18:58N 34°56' W 121°21'3 6.4
2017-Dec-16 18:30N 34°59' W 121°23'3 6.6
2017-Dec-16 18:00N 35°02' W 121°25'8 6.8
2017-Dec-16 16:53N 35°08' W 121°30'5 6.8
2017-Dec-16 16:08N 35°12' W 121°33'1 6.7
2017-Dec-16 15:59N 35°13' W 121°34'5 6.8
2017-Dec-16 15:19N 35°17' W 121°38'2 6.9
2017-Dec-16 15:00N 35°18' W 121°39'3 7.0
2017-Dec-16 14:30N 35°21' W 121°42'4 7.8
2017-Dec-16 14:01N 35°24' W 121°44'36 8.0
2017-Dec-16 09:30N 35°54' W 122°10'10 7.9
2017-Dec-16 08:17N 36°01' W 122°17'3 7.7
2017-Dec-16 07:57N 36°04' W 122°19'4 7.9
2017-Dec-16 07:29N 36°07' W 122°21'4 7.9
2017-Dec-16 07:00N 36°10' W 122°23'4 7.7
2017-Dec-16 06:30N 36°13' W 122°26'12 7.9
2017-Dec-16 04:57N 36°25' W 122°31'4 8.0
2017-Dec-16 04:30N 36°28' W 122°33'4 8.4
2017-Dec-16 04:00N 36°32' W 122°36'4 8.3
2017-Dec-16 03:30N 36°35' W 122°38'4 8.0
2017-Dec-16 03:00N 36°39' W 122°41'4 8.4
2017-Dec-16 02:30N 36°42' W 122°44'4 8.5
2017-Dec-16 02:00N 36°46' W 122°46'4 8.6
2017-Dec-16 01:30N 36°50' W 122°49'5 8.7
2017-Dec-16 00:58N 36°54' W 122°52'4 8.5
2017-Dec-16 00:28N 36°58' W 122°54'4 8.2
2017-Dec-16 00:00N 37°01' W 122°56'4 8.5
2017-Dec-15 23:30N 37°05' W 122°58'4 8.3
2017-Dec-15 23:00N 37°09' W 123°00'4 8.3
2017-Dec-15 22:30N 37°13' W 123°02'4 8.3
2017-Dec-15 22:00N 37°17' W 123°03'4 8.1
2017-Dec-15 21:30N 37°21' W 123°03'4 7.9
2017-Dec-15 21:00N 37°25' W 123°04'4 7.9
2017-Dec-15 20:30N 37°29' W 123°04'4 7.7
2017-Dec-15 20:00N 37°32' W 123°04'3 6.6
2017-Dec-15 19:30N 37°35' W 123°02'4 7.7
2017-Dec-15 19:00N 37°37' W 122°58'4 7.8
2017-Dec-15 18:30N 37°40' W 122°54'4 7.3
2017-Dec-15 18:00N 37°42' W 122°50'3 6.4
2017-Dec-15 17:30N 37°43' W 122°47'4 8.0
2017-Dec-15 16:59N 37°45' W 122°42'4 7.6
2017-Dec-15 16:30N 37°46' W 122°38'3 6.7
2017-Dec-15 16:00N 37°47' W 122°34'3 6.4
2017-Dec-15 15:30N 37°49' W 122°30'3 6.2
2017-Dec-15 15:00N 37°50' W 122°27'3 6.0
2017-Dec-15 14:30N 37°53' W 122°26'4 7.6
2017-Dec-15 14:00N 37°57' W 122°27'3 5.6
2017-Dec-15 13:30N 37°59' W 122°26'4 8.0
2017-Dec-15 13:00N 38°02' W 122°22'5 9.6
2017-Dec-15 12:29N 38°04' W 122°16'6 0.3
2017-Dec-14 14:55N 38°02' W 122°08'2 5.3
2017-Dec-14 14:30N 38°03' W 122°11'3 6.0
2017-Dec-14 14:00N 38°04' W 122°14'3 5.6
2017-Dec-14 13:30N 38°03' W 122°18'2 4.9
2017-Dec-14 13:00N 38°02' W 122°21'3 5.6
2017-Dec-14 12:30N 38°01' W 122°24'3 5.9
2017-Dec-14 11:59N 37°58' W 122°26'2 4.4
2017-Dec-14 11:30N 37°56' W 122°26'2 4.7
2017-Dec-14 11:00N 37°54' W 122°24'2 3.2
2017-Dec-14 10:30N 37°55' W 122°22'0 0.1
2017-Dec-14 10:01N 37°55' W 122°22'0 0.0
2017-Dec-14 09:30N 37°55' W 122°22'0 0.0
2017-Dec-14 09:00N 37°55' W 122°22'0 0.0
2017-Dec-14 08:30N 37°55' W 122°22'0 0.0
2017-Dec-14 08:00N 37°55' W 122°22'0 0.0
2017-Dec-14 07:30N 37°55' W 122°22'0 0.0
2017-Dec-14 07:00N 37°55' W 122°22'0 0.0
2017-Dec-14 06:30N 37°55' W 122°22'0 0.0
2017-Dec-14 06:00N 37°55' W 122°22'0 0.0
2017-Dec-14 05:30N 37°55' W 122°22'0 0.0
2017-Dec-14 05:00N 37°55' W 122°22'0 0.0
2017-Dec-14 04:30N 37°55' W 122°22'0 0.0
2017-Dec-14 04:00N 37°55' W 122°22'0 0.0
2017-Dec-14 03:30N 37°55' W 122°22'0 0.0
2017-Dec-14 03:00N 37°55' W 122°22'0 0.0
2017-Dec-14 02:30N 37°55' W 122°22'0 0.0
2017-Dec-14 02:00N 37°55' W 122°22'0 0.0
2017-Dec-14 01:29N 37°55' W 122°22'0 0.0
2017-Dec-14 01:00N 37°55' W 122°22'0 0.0
2017-Dec-14 00:30N 37°55' W 122°22'0 0.0
2017-Dec-14 00:00N 37°55' W 122°22'0 0.0
2017-Dec-13 23:30N 37°55' W 122°22'0 0.0
2017-Dec-13 23:00N 37°55' W 122°22'0 0.0
2017-Dec-13 22:30N 37°55' W 122°22'0 0.0
2017-Dec-13 22:00N 37°55' W 122°22'0 0.0
2017-Dec-13 21:30N 37°55' W 122°22'0 0.0
2017-Dec-13 21:00N 37°55' W 122°22'0 0.0
2017-Dec-13 20:30N 37°55' W 122°22'0 0.0
2017-Dec-13 20:00N 37°55' W 122°22'0 0.0
2017-Dec-13 19:30N 37°55' W 122°22'0 0.0
2017-Dec-13 19:00N 37°55' W 122°22'0 0.0
2017-Dec-13 18:30N 37°55' W 122°22'0 0.0
2017-Dec-13 18:00N 37°55' W 122°22'0 0.0
2017-Dec-13 17:30N 37°55' W 122°22'0 0.0
2017-Dec-13 17:00N 37°55' W 122°22'0 0.0
2017-Dec-13 16:30N 37°55' W 122°22'0 0.0
2017-Dec-13 16:00N 37°55' W 122°22'0 0.0
2017-Dec-13 15:30N 37°55' W 122°22'0 0.0
2017-Dec-13 15:00N 37°55' W 122°22'0 0.0
2017-Dec-13 14:30N 37°55' W 122°22'0 0.0
2017-Dec-13 14:00N 37°55' W 122°22'0 0.0
2017-Dec-13 13:30N 37°55' W 122°22'0 0.0
2017-Dec-13 13:00N 37°55' W 122°22'0 0.0
2017-Dec-13 12:30N 37°55' W 122°22'0 0.0
2017-Dec-13 12:00N 37°55' W 122°22'0 0.0
2017-Dec-13 11:30N 37°55' W 122°22'0 0.0
2017-Dec-13 11:00N 37°55' W 122°22'0 0.0
2017-Dec-13 10:30N 37°55' W 122°22'0 0.0
2017-Dec-13 10:00N 37°55' W 122°22'0 0.0
2017-Dec-13 09:30N 37°55' W 122°22'0 0.0
2017-Dec-13 09:00N 37°55' W 122°22'0 0.0
2017-Dec-13 08:30N 37°55' W 122°22'0 0.0
2017-Dec-13 08:00N 37°55' W 122°22'0 0.0
2017-Dec-13 07:30N 37°55' W 122°22'0 0.0
2017-Dec-13 07:00N 37°55' W 122°22'0 0.0
2017-Dec-13 06:30N 37°55' W 122°22'0 0.0
2017-Dec-13 06:00N 37°55' W 122°22'0 0.0
2017-Dec-13 05:30N 37°55' W 122°22'0 0.0
2017-Dec-13 05:00N 37°55' W 122°22'0 0.0
2017-Dec-13 04:30N 37°55' W 122°22'0 0.0
2017-Dec-13 04:00N 37°55' W 122°22'0 0.0
2017-Dec-13 03:30N 37°55' W 122°22'0 0.0
2017-Dec-13 03:00N 37°55' W 122°22'0 0.0
2017-Dec-13 02:30N 37°55' W 122°22'0 0.0
2017-Dec-13 02:00N 37°55' W 122°22'0 0.0
2017-Dec-13 01:30N 37°55' W 122°22'0 0.0
2017-Dec-13 01:00N 37°55' W 122°22'0 0.0
2017-Dec-13 00:30N 37°55' W 122°22'0 0.0
2017-Dec-13 00:00N 37°55' W 122°22'0 0.0
2017-Dec-12 23:30N 37°55' W 122°22'0 0.0
2017-Dec-12 23:00N 37°55' W 122°22'0 0.0
2017-Dec-12 22:30N 37°55' W 122°22'0 0.0
2017-Dec-12 22:00N 37°55' W 122°22'0 0.0
2017-Dec-12 21:30N 37°55' W 122°22'0 0.0
2017-Dec-12 21:00N 37°55' W 122°22'0 0.0
2017-Dec-12 20:30N 37°55' W 122°22'0 0.0
2017-Dec-12 20:00N 37°55' W 122°22'0 0.0
2017-Dec-12 19:30N 37°55' W 122°22'0 0.0
2017-Dec-12 19:00N 37°55' W 122°22'0 0.0
2017-Dec-12 18:30N 37°55' W 122°22'0 0.0
2017-Dec-12 18:00N 37°55' W 122°22'0 0.0
2017-Dec-12 17:30N 37°55' W 122°22'0 0.0
2017-Dec-12 17:00N 37°55' W 122°22'0 0.0
2017-Dec-12 16:30N 37°55' W 122°22'0 0.0
2017-Dec-12 16:00N 37°55' W 122°22'0 0.0
2017-Dec-12 15:30N 37°55' W 122°22'0 0.0
2017-Dec-12 15:00N 37°55' W 122°22'0 0.0
2017-Dec-12 14:30N 37°55' W 122°22'0 0.0
2017-Dec-12 14:00N 37°55' W 122°22'0 0.0
2017-Dec-12 13:30N 37°55' W 122°22'0 0.0
2017-Dec-12 13:00N 37°55' W 122°22'0 0.0
2017-Dec-12 12:30N 37°55' W 122°22'0 0.0
2017-Dec-12 12:00N 37°55' W 122°22'0 0.0
2017-Dec-12 11:30N 37°55' W 122°22'0 0.0
2017-Dec-12 11:00N 37°55' W 122°22'0 0.0
2017-Dec-12 10:30N 37°55' W 122°22'0 0.0
2017-Dec-12 10:00N 37°55' W 122°22'0 0.0
2017-Dec-12 09:30N 37°55' W 122°22'0 0.0
2017-Dec-12 09:00N 37°55' W 122°22'0 0.0
2017-Dec-12 08:30N 37°55' W 122°22'0 0.0
2017-Dec-12 08:00N 37°55' W 122°22'0 0.0
2017-Dec-12 07:30N 37°55' W 122°22'0 0.0
2017-Dec-12 07:00N 37°55' W 122°22'0 0.0
2017-Dec-12 06:30N 37°55' W 122°22'0 0.0
2017-Dec-12 06:00N 37°55' W 122°22'0 0.0
2017-Dec-12 05:30N 37°55' W 122°22'0 0.0
2017-Dec-12 05:00N 37°55' W 122°22'0 0.0
2017-Dec-12 04:30N 37°55' W 122°22'0 0.0
2017-Dec-12 04:00N 37°55' W 122°22'0 0.0
2017-Dec-12 03:30N 37°55' W 122°22'0 0.0
2017-Dec-12 03:00N 37°55' W 122°22'0 0.0
2017-Dec-12 02:30N 37°55' W 122°22'0 0.0
2017-Dec-12 02:00N 37°55' W 122°22'0 0.0
2017-Dec-12 01:30N 37°55' W 122°22'0 0.1
2017-Dec-12 01:00N 37°55' W 122°22'0 0.1
2017-Dec-12 00:30N 37°55' W 122°22'0 0.0
2017-Dec-12 00:00N 37°55' W 122°22'0 0.0
2017-Dec-11 23:30N 37°55' W 122°22'0 0.0
2017-Dec-11 23:00N 37°55' W 122°22'0 0.0
2017-Dec-11 22:30N 37°55' W 122°22'0 0.0
2017-Dec-11 22:00N 37°55' W 122°22'0 0.0
2017-Dec-11 21:30N 37°55' W 122°22'0 0.0
2017-Dec-11 21:00N 37°55' W 122°22'0 0.0
2017-Dec-11 20:30N 37°55' W 122°22'0 0.0
2017-Dec-11 20:00N 37°55' W 122°22'0 0.0
2017-Dec-11 19:30N 37°55' W 122°22'0 0.0
2017-Dec-11 19:00N 37°55' W 122°22'0 0.0
2017-Dec-11 18:30N 37°55' W 122°22'0 0.0
2017-Dec-11 18:00N 37°55' W 122°22'0 0.0
2017-Dec-11 17:30N 37°55' W 122°22'0 0.0
2017-Dec-11 17:00N 37°55' W 122°22'0 0.0
2017-Dec-11 16:30N 37°55' W 122°22'0 0.0
2017-Dec-11 16:00N 37°55' W 122°22'0 0.0
2017-Dec-11 15:30N 37°55' W 122°22'0 0.0
2017-Dec-11 15:00N 37°55' W 122°22'0 0.0
2017-Dec-11 14:30N 37°55' W 122°22'0 0.0
2017-Dec-11 14:00N 37°55' W 122°22'0 0.0
2017-Dec-11 13:30N 37°55' W 122°22'0 0.0
2017-Dec-11 13:00N 37°55' W 122°22'0 0.0
2017-Dec-11 12:30N 37°55' W 122°22'0 0.0
2017-Dec-11 12:00N 37°55' W 122°22'0 0.0
2017-Dec-11 11:30N 37°55' W 122°22'0 0.0
2017-Dec-11 11:01N 37°55' W 122°22'0 0.0
2017-Dec-11 10:30N 37°55' W 122°22'0 0.0
2017-Dec-11 10:00N 37°55' W 122°22'0 0.0
2017-Dec-11 09:30N 37°55' W 122°22'0 0.0
2017-Dec-11 09:00N 37°55' W 122°22'0 0.0
2017-Dec-11 08:30N 37°55' W 122°22'0 0.0
2017-Dec-11 08:00N 37°55' W 122°22'0 0.0
2017-Dec-11 07:30N 37°55' W 122°22'0 0.0
2017-Dec-11 07:01N 37°55' W 122°22'0 0.0
2017-Dec-11 06:30N 37°55' W 122°22'0 0.0
2017-Dec-11 06:00N 37°55' W 122°22'0 0.0
2017-Dec-11 05:30N 37°55' W 122°22'0 0.0
2017-Dec-11 05:00N 37°55' W 122°22'0 0.0
2017-Dec-11 04:30N 37°55' W 122°22'0 0.0
2017-Dec-11 04:00N 37°55' W 122°22'0 0.0
2017-Dec-11 03:30N 37°55' W 122°22'0 0.0
2017-Dec-11 03:00N 37°55' W 122°22'0 0.0
2017-Dec-11 02:30N 37°55' W 122°22'0 0.0
2017-Dec-11 02:00N 37°55' W 122°22'0 0.0
2017-Dec-11 01:30N 37°55' W 122°22'0 0.0
2017-Dec-11 01:00N 37°55' W 122°22'0 0.0
2017-Dec-11 00:30N 37°55' W 122°22'0 0.0
2017-Dec-11 00:00N 37°55' W 122°22'0 0.0
2017-Dec-10 23:30N 37°55' W 122°22'0 0.0
2017-Dec-10 23:00N 37°55' W 122°22'0 0.0
2017-Dec-10 22:30N 37°55' W 122°22'0 0.0
2017-Dec-10 22:00N 37°55' W 122°22'0 0.0
2017-Dec-10 21:30N 37°55' W 122°22'0 0.0
2017-Dec-10 21:00N 37°55' W 122°22'0 0.0
2017-Dec-10 20:30N 37°55' W 122°22'0 0.0
2017-Dec-10 20:00N 37°55' W 122°22'0 0.0
2017-Dec-10 19:30N 37°55' W 122°22'0 0.0
2017-Dec-10 19:00N 37°55' W 122°22'0 0.0
2017-Dec-10 18:30N 37°55' W 122°22'0 0.0
2017-Dec-10 18:00N 37°55' W 122°22'0 0.0
2017-Dec-10 17:30N 37°55' W 122°22'0 0.0
2017-Dec-10 17:00N 37°55' W 122°22'0 0.0
2017-Dec-10 16:31N 37°55' W 122°22'0 0.0
2017-Dec-10 16:00N 37°55' W 122°22'0 0.0
2017-Dec-10 15:30N 37°55' W 122°22'0 0.0
2017-Dec-10 15:00N 37°55' W 122°22'0 0.0
2017-Dec-10 14:30N 37°55' W 122°22'0 0.0
2017-Dec-10 14:00N 37°55' W 122°22'0 0.0
2017-Dec-10 13:30N 37°55' W 122°22'0 0.0
2017-Dec-10 13:00N 37°55' W 122°22'0 0.0
2017-Dec-10 12:30N 37°55' W 122°22'1 1.0
2017-Dec-10 12:00N 37°54' W 122°22'2 4.7
2017-Dec-10 11:30N 37°55' W 122°25'1 2.0
2017-Dec-10 11:00N 37°54' W 122°26'2 3.8
2017-Dec-10 10:30N 37°53' W 122°25'3 5.0
2017-Dec-10 10:00N 37°50' W 122°24'3 6.6
2017-Dec-10 09:30N 37°49' W 122°28'4 7.4
2017-Dec-10 09:00N 37°47' W 122°32'3 6.3
2017-Dec-10 08:30N 37°46' W 122°36'3 6.3
2017-Dec-10 08:00N 37°44' W 122°40'4 5.6
2017-Dec-10 07:17N 37°42' W 122°44'1 5.2
2017-Dec-10 07:00N 37°41' W 122°45'3 6.6
2017-Dec-10 06:30N 37°39' W 122°49'3 6.9
2017-Dec-10 06:00N 37°37' W 122°52'4 7.3
2017-Dec-10 05:30N 37°35' W 122°56'4 7.1
2017-Dec-10 05:00N 37°33' W 122°60'3 6.5
2017-Dec-10 04:30N 37°31' W 123°03'3 6.9
2017-Dec-10 04:00N 37°28' W 123°02'3 6.8
2017-Dec-10 03:30N 37°24' W 123°02'4 6.7
2017-Dec-10 02:55N 37°20' W 123°00'25 6.2
2017-Dec-09 22:59N 36°58' W 122°48'3 6.4
2017-Dec-09 22:29N 36°55' W 122°46'3 6.5
2017-Dec-09 22:00N 36°52' W 122°45'3 6.7
2017-Dec-09 21:30N 36°49' W 122°43'3 6.6
2017-Dec-09 21:00N 36°46' W 122°41'3 6.6
2017-Dec-09 20:30N 36°43' W 122°39'3 6.6
2017-Dec-09 20:00N 36°40' W 122°38'3 6.8
2017-Dec-09 19:30N 36°37' W 122°36'3 6.7
2017-Dec-09 19:00N 36°34' W 122°34'3 6.7
2017-Dec-09 18:30N 36°31' W 122°33'3 6.4
2017-Dec-09 18:00N 36°28' W 122°31'3 6.6
2017-Dec-09 17:30N 36°25' W 122°29'3 6.8
2017-Dec-09 17:00N 36°22' W 122°28'4 7.1
2017-Dec-09 16:30N 36°19' W 122°26'4 7.1
2017-Dec-09 16:00N 36°16' W 122°24'3 7.0
2017-Dec-09 15:30N 36°13' W 122°22'4 7.1
2017-Dec-09 15:00N 36°09' W 122°20'4 6.8
2017-Dec-09 14:23N 36°06' W 122°17'3 7.0
2017-Dec-09 14:00N 36°03' W 122°16'4 7.2
2017-Dec-09 13:30N 36°00' W 122°13'4 7.0
2017-Dec-09 13:00N 35°57' W 122°11'4 7.0
2017-Dec-09 12:30N 35°54' W 122°09'4 7.3
2017-Dec-09 12:00N 35°51' W 122°06'4 7.4
2017-Dec-09 11:30N 35°49' W 122°03'4 7.3
2017-Dec-09 11:00N 35°46' W 122°01'3 6.9
2017-Dec-09 10:30N 35°43' W 121°58'4 7.1
2017-Dec-09 10:00N 35°40' W 121°55'4 7.3
2017-Dec-09 09:31N 35°37' W 121°53'4 7.1
2017-Dec-09 09:00N 35°34' W 121°50'4 7.4
2017-Dec-09 08:30N 35°31' W 121°48'4 7.4
2017-Dec-09 08:00N 35°28' W 121°45'4 7.2
2017-Dec-09 07:30N 35°25' W 121°43'4 7.0
2017-Dec-09 07:00N 35°22' W 121°40'3 6.9
2017-Dec-09 06:30N 35°19' W 121°38'3 6.9
2017-Dec-09 06:00N 35°17' W 121°35'4 7.0
2017-Dec-09 05:30N 35°14' W 121°32'3 6.8
2017-Dec-09 05:00N 35°11' W 121°30'3 6.9
2017-Dec-09 04:30N 35°08' W 121°28'4 7.1
2017-Dec-09 04:00N 35°05' W 121°25'3 6.9
2017-Dec-09 03:30N 35°02' W 121°23'3 6.6
2017-Dec-09 03:00N 34°60' W 121°21'3 6.4
2017-Dec-09 02:30N 34°57' W 121°18'3 6.4
2017-Dec-09 02:00N 34°55' W 121°16'3 6.8
2017-Dec-09 01:31N 34°52' W 121°14'3 6.7
2017-Dec-09 01:00N 34°49' W 121°11'3 6.8
2017-Dec-09 00:30N 34°47' W 121°09'3 6.7
2017-Dec-09 00:00N 34°44' W 121°06'3 6.4
2017-Dec-08 23:30N 34°41' W 121°04'3 6.3
2017-Dec-08 23:00N 34°39' W 121°02'3 6.3
2017-Dec-08 22:30N 34°36' W 120°60'3 6.4
2017-Dec-08 22:00N 34°33' W 120°57'4 6.9
2017-Dec-08 21:26N 34°30' W 120°55'3 7.1
2017-Dec-08 20:58N 34°27' W 120°52'3 6.9
2017-Dec-08 20:30N 34°26' W 120°49'4 6.9
2017-Dec-08 19:57N 34°25' W 120°44'3 6.9
2017-Dec-08 19:30N 34°24' W 120°41'4 7.2
2017-Dec-08 19:00N 34°23' W 120°37'4 7.1
2017-Dec-08 18:30N 34°22' W 120°33'4 7.1
2017-Dec-08 18:00N 34°21' W 120°28'4 6.9
2017-Dec-08 17:29N 34°21' W 120°24'3 6.8
2017-Dec-08 16:58N 34°20' W 120°20'3 7.0
2017-Dec-08 16:30N 34°19' W 120°16'3 6.8
2017-Dec-08 16:00N 34°17' W 120°12'3 6.5
2017-Dec-08 15:30N 34°17' W 120°09'3 6.9
2017-Dec-08 15:00N 34°16' W 120°05'3 7.1
2017-Dec-08 14:30N 34°15' W 120°00'4 7.0
2017-Dec-08 14:00N 34°14' W 119°56'4 7.1
2017-Dec-08 13:30N 34°13' W 119°52'3 7.0
2017-Dec-08 13:00N 34°12' W 119°48'4 7.4
2017-Dec-08 12:28N 34°11' W 119°43'4 7.9
2017-Dec-08 11:59N 34°10' W 119°39'4 7.5
2017-Dec-08 11:30N 34°09' W 119°35'4 7.5
2017-Dec-08 10:59N 34°08' W 119°30'4 7.6
2017-Dec-08 10:30N 34°07' W 119°26'4 7.6
2017-Dec-08 09:58N 34°06' W 119°21'4 7.8
2017-Dec-08 09:30N 34°05' W 119°17'4 7.6
2017-Dec-08 09:00N 34°04' W 119°13'5 7.6
2017-Dec-08 08:24N 34°01' W 119°08'3 7.5
2017-Dec-08 08:00N 33°60' W 119°05'4 7.3
2017-Dec-08 07:30N 33°58' W 119°01'4 7.4
2017-Dec-08 07:00N 33°56' W 118°57'4 7.3
2017-Dec-08 06:30N 33°54' W 118°53'4 7.5
2017-Dec-08 06:00N 33°52' W 118°50'4 7.4
2017-Dec-08 05:30N 33°51' W 118°46'4 7.0
2017-Dec-08 05:00N 33°49' W 118°42'4 7.0
2017-Dec-08 04:29N 33°47' W 118°38'  

Dump ship's entire track history